Time;durP1;ratioP1;P1;durP2;ratioP2;P2;SDS_P1;SDS_P2;PMS_P1;PMS_P2;Temp;Humidity;BMP_temperature;BMP_pressure;BME280_temperature;BME280_humidity;BME280_pressure;Samples;Min_cycle;Max_cycle;Signal;HPM_P1;HPM_P2
2022/03/27 00:01:18;;;;;;;6.70;6.40;;;;;;;12.53;52.47;100907.84;5047177;28;20040;-65
2022/03/27 00:03:44;;;;;;;6.50;6.20;;;;;;;12.52;54.59;100911.50;5046326;28;20108;-64
2022/03/27 00:06:09;;;;;;;7.00;6.70;;;;;;;12.49;56.06;100919.84;5013874;28;20026;-65
2022/03/27 00:08:35;;;;;;;6.78;6.47;;;;;;;12.43;57.61;100932.03;5029885;28;20492;-65
2022/03/27 00:13:46;;;;;;;6.60;6.30;;;;;;;12.27;62.82;100937.47;5038123;28;20504;-64
2022/03/27 00:16:11;;;;;;;6.78;6.47;;;;;;;12.10;65.97;100937.53;5036131;28;20025;-64
2022/03/27 00:18:37;;;;;;;6.80;6.50;;;;;;;12.00;68.27;100942.25;5045290;28;20014;-64
2022/03/27 00:21:04;;;;;;;6.50;6.20;;;;;;;11.91;69.81;100937.97;5033553;28;20536;-64
2022/03/27 00:23:29;;;;;;;6.90;6.60;;;;;;;11.76;70.70;100950.31;5023531;28;20120;-64
2022/03/27 00:25:55;;;;;;;6.78;6.47;;;;;;;11.67;70.25;100960.09;5013486;28;20022;-65
2022/03/27 00:28:20;;;;;;;6.55;6.25;;;;;;;11.47;70.65;100977.47;5042336;28;20033;-64
2022/03/27 00:30:46;;;;;;;6.82;6.53;;;;;;;11.34;70.86;100962.03;5042559;28;20029;-65
2022/03/27 00:33:12;;;;;;;6.65;6.35;;;;;;;11.32;70.72;100958.72;5042644;28;20059;-65
2022/03/27 00:35:38;;;;;;;6.63;6.32;;;;;;;11.27;72.39;100971.69;5034819;28;20021;-64
2022/03/27 00:38:04;;;;;;;6.38;6.07;;;;;;;11.14;73.27;100968.69;5033245;28;20013;-65
2022/03/27 00:40:30;;;;;;;6.88;6.57;;;;;;;11.02;73.98;100973.53;5033075;28;20029;-65
2022/03/27 00:42:55;;;;;;;6.72;6.43;;;;;;;10.96;74.75;100974.19;5032945;28;20100;-64
2022/03/27 00:45:21;;;;;;;7.50;7.15;;;;;;;10.85;75.27;100990.44;5037550;28;20499;-65
2022/03/27 00:47:46;;;;;;;6.65;6.35;;;;;;;10.77;75.58;100980.66;5040397;28;20116;-64
2022/03/27 00:50:11;;;;;;;6.55;6.25;;;;;;;10.80;75.32;100985.63;5032858;28;20464;-64
2022/03/27 00:52:37;;;;;;;6.47;6.18;;;;;;;10.68;76.08;100981.63;5030806;28;20034;-64
2022/03/27 00:55:03;;;;;;;6.50;6.20;;;;;;;10.62;76.16;100985.78;5012973;28;20040;-63
2022/03/27 00:57:30;;;;;;;6.80;6.50;;;;;;;10.61;76.88;100993.91;5012867;28;20133;-64
2022/03/27 00:59:57;;;;;;;6.38;6.07;;;;;;;10.45;77.86;101000.00;5013083;28;20057;-64
2022/03/27 01:02:24;;;;;;;6.93;6.63;;;;;;;10.39;78.77;101017.38;5017677;28;20507;-63
2022/03/27 01:04:54;;;;;;;6.63;6.32;;;;;;;10.31;78.37;101011.22;5041091;28;20086;-64
2022/03/27 01:07:20;;;;;;;6.70;6.40;;;;;;;10.36;77.71;101027.50;5052450;28;20021;-64
2022/03/27 01:09:46;;;;;;;6.70;6.40;;;;;;;10.09;76.14;101008.13;5037939;28;20026;-65
2022/03/27 01:12:18;;;;;;;7.53;7.13;;;;;;;10.18;75.00;101036.34;5031543;28;20467;-65
2022/03/27 01:14:44;;;;;;;6.47;6.18;;;;;;;10.14;73.45;101048.25;5032465;28;20028;-64
2022/03/27 01:17:15;;;;;;;6.93;6.63;;;;;;;10.04;71.34;101038.75;5031475;28;20049;-64
2022/03/27 01:19:44;;;;;;;7.50;7.10;;;;;;;10.08;68.33;101053.38;5031892;28;20514;-63
2022/03/27 01:22:11;;;;;;;6.50;6.20;;;;;;;10.08;66.72;101054.19;5047705;28;20048;-64
2022/03/27 01:24:36;;;;;;;6.40;6.10;;;;;;;9.99;65.48;101055.16;5049262;28;20385;-64
2022/03/27 01:27:03;;;;;;;6.40;6.10;;;;;;;9.91;63.96;101061.22;5036879;28;20025;-64
2022/03/27 01:29:29;;;;;;;6.68;6.38;;;;;;;9.88;62.56;101072.13;5028105;28;20486;-65
2022/03/27 01:31:55;;;;;;;6.50;6.20;;;;;;;9.86;61.94;101082.06;5012483;28;20083;-63
2022/03/27 01:34:21;;;;;;;6.50;6.20;;;;;;;9.74;60.64;101078.00;5042176;28;20052;-64
2022/03/27 01:36:47;;;;;;;6.70;6.40;;;;;;;9.70;59.96;101084.63;5038020;28;20472;-66
2022/03/27 01:39:15;;;;;;;6.50;6.20;;;;;;;9.61;59.52;101081.06;5037857;28;20033;-64
2022/03/27 01:41:41;;;;;;;6.43;6.13;;;;;;;9.57;59.71;101100.91;5034603;28;20052;-64
2022/03/27 01:44:09;;;;;;;6.80;6.50;;;;;;;9.45;58.82;101099.50;5052295;28;20028;-63
2022/03/27 01:46:37;;;;;;;6.50;6.20;;;;;;;9.34;58.47;101108.50;5051890;28;20040;-64
2022/03/27 01:49:06;;;;;;;6.60;6.30;;;;;;;9.26;57.81;101113.75;5030981;28;20105;-64
2022/03/27 01:51:31;;;;;;;7.15;6.85;;;;;;;9.09;56.48;101117.19;5030513;28;20037;-64
2022/03/27 01:53:57;;;;;;;6.47;6.18;;;;;;;8.82;56.28;101079.25;5040798;28;20472;-63
2022/03/27 01:56:23;;;;;;;6.50;6.20;;;;;;;8.90;56.05;101112.06;5036190;28;20527;-64
2022/03/27 01:58:49;;;;;;;6.47;6.18;;;;;;;8.81;57.01;101114.63;5076480;28;20021;-64
2022/03/27 02:01:19;;;;;;;7.28;6.90;;;;;;;8.62;57.64;101113.88;5034031;28;20117;-64
2022/03/27 02:03:46;;;;;;;6.53;6.22;;;;;;;8.61;59.11;101114.88;5031796;28;20028;-64
2022/03/27 02:06:12;;;;;;;6.90;6.60;;;;;;;8.57;58.91;101136.31;5031596;28;20033;-64
2022/03/27 02:08:38;;;;;;;7.18;6.85;;;;;;;8.47;59.62;101140.81;5033648;28;20030;-65
2022/03/27 02:11:05;;;;;;;6.82;6.53;;;;;;;8.38;59.12;101151.44;5040059;28;20029;-63
2022/03/27 02:13:31;;;;;;;7.25;6.93;;;;;;;8.38;59.64;101162.03;5032281;28;20037;-64
2022/03/27 02:15:57;;;;;;;6.95;6.65;;;;;;;8.29;60.36;101163.66;5034858;28;20119;-64
2022/03/27 02:18:26;;;;;;;7.03;6.72;;;;;;;8.17;60.63;101155.09;5031761;28;20022;-64
2022/03/27 02:20:51;;;;;;;6.80;6.50;;;;;;;8.08;60.31;101161.25;5028302;28;20053;-64
2022/03/27 02:23:17;;;;;;;7.00;6.70;;;;;;;8.05;61.27;101172.06;5012206;28;20053;-65
2022/03/27 02:25:42;;;;;;;6.70;6.40;;;;;;;7.98;60.67;101169.16;5024575;28;20480;-64
2022/03/27 02:28:08;;;;;;;9.13;8.63;;;;;;;7.84;60.74;101181.97;5049486;28;20025;-64
2022/03/27 02:30:34;;;;;;;7.03;6.72;;;;;;;7.82;60.03;101178.66;5038848;28;20484;-63
2022/03/27 02:33:00;;;;;;;6.82;6.53;;;;;;;7.70;60.06;101184.06;5040078;28;20021;-64
2022/03/27 02:35:26;;;;;;;7.07;6.78;;;;;;;7.65;60.07;101194.25;5027853;28;20087;-65
2022/03/27 02:37:51;;;;;;;6.80;6.50;;;;;;;7.57;59.26;101180.06;5015538;28;20540;-63
2022/03/27 02:40:17;;;;;;;6.57;6.28;;;;;;;7.52;59.45;101196.31;5040869;28;20029;-64
2022/03/27 02:42:42;;;;;;;7.10;6.80;;;;;;;7.47;58.74;101202.00;5046426;28;20025;-64
2022/03/27 02:45:09;;;;;;;6.82;6.53;;;;;;;7.42;58.41;101203.41;5035695;28;20112;-64
2022/03/27 02:47:35;;;;;;;6.53;6.22;;;;;;;7.33;57.79;101199.75;5048938;28;20025;-64
2022/03/27 02:50:02;;;;;;;6.35;6.05;;;;;;;7.27;56.96;101191.56;5024977;28;20112;-64
2022/03/27 02:52:27;;;;;;;6.82;6.53;;;;;;;7.26;56.71;101218.91;5024712;28;20029;-64
2022/03/27 02:54:53;;;;;;;6.25;5.95;;;;;;;7.19;56.31;101216.00;5035127;28;20075;-63
2022/03/27 02:57:18;;;;;;;6.30;6.00;;;;;;;7.11;55.84;101213.19;5035510;28;20056;-64
2022/03/27 02:59:45;;;;;;;6.68;6.38;;;;;;;7.10;54.90;101222.09;5046208;28;20435;-64
2022/03/27 03:02:10;;;;;;;6.85;6.55;;;;;;;7.03;55.31;101223.59;5035360;28;20029;-63
2022/03/27 03:04:36;;;;;;;6.93;6.63;;;;;;;6.95;55.13;101213.72;5048380;28;20028;-64
2022/03/27 03:07:02;;;;;;;6.65;6.35;;;;;;;6.93;54.80;101226.22;5053539;28;20074;-64
2022/03/27 03:09:27;;;;;;;6.82;6.53;;;;;;;6.88;54.08;101218.69;5054955;28;20017;-64
2022/03/27 03:11:53;;;;;;;6.47;6.18;;;;;;;6.86;53.49;101236.47;5041093;28;20087;-64
2022/03/27 03:14:19;;;;;;;6.30;6.00;;;;;;;6.85;53.56;101242.69;5034764;28;20038;-65
2022/03/27 03:16:49;;;;;;;6.70;6.40;;;;;;;6.81;53.24;101243.91;5043267;28;20597;-65
2022/03/27 03:19:15;;;;;;;6.70;6.40;;;;;;;6.78;53.34;101244.19;5034460;28;20025;-64
2022/03/27 03:21:41;;;;;;;6.70;6.40;;;;;;;6.74;54.03;101245.41;5042450;28;20053;-65
2022/03/27 03:24:07;;;;;;;6.50;6.20;;;;;;;6.68;54.27;101235.41;5043995;28;20025;-64
2022/03/27 03:26:33;;;;;;;6.20;5.90;;;;;;;6.60;55.06;101249.22;5036003;28;20232;-64
2022/03/27 03:28:59;;;;;;;6.70;6.40;;;;;;;6.60;55.55;101266.84;5038463;28;20060;-64
2022/03/27 03:31:25;;;;;;;6.35;6.05;;;;;;;6.53;55.93;101263.91;5034634;28;20026;-64
2022/03/27 03:33:50;;;;;;;6.50;6.20;;;;;;;6.51;56.42;101273.75;5039164;28;20056;-65
2022/03/27 03:36:16;;;;;;;6.63;6.32;;;;;;;6.42;56.83;101271.06;5034410;28;20033;-64
2022/03/27 03:38:42;;;;;;;6.60;6.30;;;;;;;6.40;56.77;101288.81;5033434;28;20029;-64
2022/03/27 03:41:08;;;;;;;6.43;6.13;;;;;;;6.33;56.94;101305.13;5038228;28;20133;-64
2022/03/27 03:43:36;;;;;;;6.25;5.95;;;;;;;6.24;55.14;101320.84;5014784;28;20033;-63
2022/03/27 03:46:04;;;;;;;6.22;5.93;;;;;;;6.14;52.36;101327.84;5040453;28;20027;-64
2022/03/27 03:48:31;;;;;;;6.70;6.40;;;;;;;5.90;49.52;101299.09;5028046;28;20022;-64
2022/03/27 03:50:57;;;;;;;6.40;6.10;;;;;;;5.82;45.00;101323.41;5014385;28;20044;-63
2022/03/27 03:53:23;;;;;;;7.43;7.03;;;;;;;5.76;44.41;101327.34;5028419;28;20489;-63
2022/03/27 03:55:48;;;;;;;6.50;6.20;;;;;;;5.64;42.63;101338.88;5035422;28;20536;-64
2022/03/27 03:58:14;;;;;;;6.28;5.97;;;;;;;5.60;41.80;101352.41;5044644;28;20112;-64
2022/03/27 04:00:41;;;;;;;6.05;5.80;;;;;;;5.58;40.95;101352.50;5032078;28;20033;-64
2022/03/27 04:03:08;;;;;;;6.38;6.07;;;;;;;5.54;40.92;101367.72;5048778;28;20031;-64
2022/03/27 04:05:34;;;;;;;6.75;6.45;;;;;;;5.63;40.50;101383.75;5053956;28;20079;-64
2022/03/27 04:08:00;;;;;;;6.50;6.20;;;;;;;5.76;40.01;101387.91;5043161;28;20026;-64
2022/03/27 04:10:25;;;;;;;6.68;6.38;;;;;;;5.94;40.45;101390.88;5033283;28;20021;-63
2022/03/27 04:12:51;;;;;;;6.40;6.10;;;;;;;5.92;39.75;101386.72;5041544;28;20021;-63
2022/03/27 04:15:16;;;;;;;6.90;6.57;;;;;;;6.16;39.04;101395.25;5030862;28;20025;-64
2022/03/27 04:17:46;;;;;;;6.38;6.07;;;;;;;6.44;38.61;101399.09;5042303;28;20013;-64
2022/03/27 04:20:12;;;;;;;7.22;6.85;;;;;;;6.64;38.33;101394.81;5033592;28;20056;-64
2022/03/27 04:22:39;;;;;;;6.13;5.82;;;;;;;6.69;37.57;101405.84;5032309;28;20021;-64
2022/03/27 04:25:05;;;;;;;5.95;5.72;;;;;;;6.97;36.71;101406.13;5033847;28;20032;-65
2022/03/27 04:27:31;;;;;;;6.60;6.30;;;;;;;7.49;35.30;101410.41;5040130;28;20437;-64
2022/03/27 04:29:56;;;;;;;6.38;6.07;;;;;;;7.47;34.74;101407.91;5038610;28;20036;-64
2022/03/27 04:32:22;;;;;;;6.60;6.30;;;;;;;7.88;33.79;101421.97;5042751;28;20062;-64
2022/03/27 04:34:50;;;;;;;6.40;6.10;;;;;;;8.32;32.73;101433.03;5046317;28;20049;-65
2022/03/27 04:37:16;;;;;;;6.22;5.93;;;;;;;8.13;32.67;101438.28;5032352;28;20096;-64
2022/03/27 04:39:41;;;;;;;6.50;6.20;;;;;;;8.47;31.44;101442.25;5033361;28;20026;-64
2022/03/27 04:42:09;;;;;;;6.38;6.07;;;;;;;9.63;30.61;101444.69;5032895;28;20385;-64
2022/03/27 04:44:34;;;;;;;6.40;6.10;;;;;;;10.60;28.48;101444.09;5033732;28;20115;-64
2022/03/27 04:47:00;;;;;;;6.30;6.00;;;;;;;12.42;25.82;101459.91;5037276;28;20449;-65
2022/03/27 04:49:25;;;;;;;7.60;7.30;;;;;;;13.48;25.15;101465.19;5052242;28;20422;-65
2022/03/27 04:51:51;;;;;;;6.57;6.28;;;;;;;13.65;24.99;101465.97;5046027;28;20484;-65
2022/03/27 04:54:16;;;;;;;6.97;6.68;;;;;;;13.74;24.42;101483.63;5052919;28;20023;-64
2022/03/27 04:56:42;;;;;;;6.70;6.40;;;;;;;15.11;22.90;101499.81;5042294;28;20049;-65
2022/03/27 04:59:07;;;;;;;6.82;6.53;;;;;;;16.11;21.59;101499.44;5032712;28;20097;-65
2022/03/27 05:01:33;;;;;;;7.20;6.90;;;;;;;17.74;19.95;101504.88;5033171;28;20021;-64
2022/03/27 05:03:58;;;;;;;6.90;6.60;;;;;;;17.62;19.72;101496.50;5045708;28;20393;-65
2022/03/27 05:06:24;;;;;;;7.00;6.70;;;;;;;16.57;20.67;101504.47;5044784;28;20033;-65
2022/03/27 05:08:51;;;;;;;7.30;7.00;;;;;;;16.37;20.11;101493.53;5034549;28;20033;-64
2022/03/27 05:11:17;;;;;;;7.20;6.90;;;;;;;16.95;20.45;101506.94;5035657;28;20033;-65
2022/03/27 05:13:42;;;;;;;7.25;6.95;;;;;;;16.25;20.29;101487.03;5032554;28;20026;-64
2022/03/27 05:16:08;;;;;;;7.13;6.82;;;;;;;16.93;20.11;101498.28;5032430;28;20103;-64
2022/03/27 05:18:34;;;;;;;7.50;7.20;;;;;;;16.94;20.36;101503.44;5032682;28;20547;-64
2022/03/27 05:20:59;;;;;;;7.20;6.90;;;;;;;17.18;19.99;101510.22;5074330;28;20071;-66
2022/03/27 05:23:25;;;;;;;7.75;7.45;;;;;;;17.26;19.95;101514.63;5032907;28;20068;-65
2022/03/27 05:25:52;;;;;;;7.30;7.00;;;;;;;17.18;20.06;101517.44;5034359;28;20110;-64
2022/03/27 05:28:19;;;;;;;7.10;6.80;;;;;;;17.85;19.15;101492.75;5034873;28;20393;-65
2022/03/27 05:30:46;;;;;;;7.00;6.70;;;;;;;19.47;17.69;101511.47;5031008;28;20607;-64
2022/03/27 05:33:11;;;;;;;7.15;6.85;;;;;;;18.01;18.49;101503.16;5037045;28;20040;-65
2022/03/27 05:35:37;;;;;;;6.90;6.60;;;;;;;18.16;18.88;101505.69;5033046;28;20033;-64
2022/03/27 05:38:04;;;;;;;7.22;6.93;;;;;;;18.40;18.54;101505.16;5047649;28;20024;-64
2022/03/27 05:40:29;;;;;;;7.00;6.70;;;;;;;16.55;19.48;101493.97;5039787;28;20025;-65
2022/03/27 05:42:55;;;;;;;7.30;7.00;;;;;;;18.40;18.35;101521.28;5031938;28;20040;-65
2022/03/27 05:45:21;;;;;;;7.45;7.15;;;;;;;18.13;18.19;101525.72;5048947;28;20079;-64
2022/03/27 05:47:47;;;;;;;7.15;6.85;;;;;;;18.63;17.52;101533.53;5051765;28;20476;-65
2022/03/27 05:50:15;;;;;;;7.50;7.20;;;;;;;17.46;18.84;101544.28;5031591;28;20091;-65
2022/03/27 05:52:42;;;;;;;7.35;7.05;;;;;;;18.35;17.98;101533.66;5029274;28;20039;-66
2022/03/27 05:55:08;;;;;;;7.00;6.70;;;;;;;19.24;17.60;101541.50;5044964;28;20485;-66
2022/03/27 05:57:33;;;;;;;7.20;6.90;;;;;;;18.43;17.96;101554.97;5030624;28;20071;-64
2022/03/27 05:59:59;;;;;;;7.18;6.88;;;;;;;18.97;17.42;101549.56;5038903;28;20516;-64
2022/03/27 06:02:24;;;;;;;7.85;7.55;;;;;;;17.46;18.64;101555.84;5031120;28;20037;-66
2022/03/27 06:04:51;;;;;;;7.50;7.20;;;;;;;19.23;17.25;101554.09;5031537;28;20021;-65
2022/03/27 06:07:17;;;;;;;7.85;7.55;;;;;;;18.90;17.33;101558.66;5027228;28;20029;-65
2022/03/27 06:09:43;;;;;;;7.90;7.60;;;;;;;19.37;17.01;101559.50;5033676;28;20132;-65
2022/03/27 06:12:10;;;;;;;7.30;7.00;;;;;;;18.03;17.78;101562.84;5028202;28;20126;-64
2022/03/27 06:14:36;;;;;;;7.10;6.80;;;;;;;18.25;17.10;101560.06;5031591;28;20549;-65
2022/03/27 06:17:02;;;;;;;7.80;7.50;;;;;;;16.23;19.26;101556.84;5018846;28;20112;-64
2022/03/27 06:19:30;;;;;;;7.80;7.50;;;;;;;16.78;18.76;101570.69;5029525;28;20036;-65
2022/03/27 06:21:58;;;;;;;7.47;7.18;;;;;;;17.18;18.27;101555.81;5027309;28;20018;-64
2022/03/27 06:24:25;;;;;;;7.40;7.10;;;;;;;17.69;18.38;101566.31;5039974;28;20860;-66
2022/03/27 06:26:51;;;;;;;7.60;7.30;;;;;;;15.61;19.67;101541.16;5040396;28;20507;-66
2022/03/27 06:29:16;;;;;;;7.80;7.50;;;;;;;16.16;19.33;101545.22;5050986;28;20043;-65
2022/03/27 06:31:42;;;;;;;8.20;7.80;;;;;;;15.69;19.66;101535.72;5033687;28;20477;-65
2022/03/27 06:34:08;;;;;;;7.40;7.10;;;;;;;15.27;20.07;101559.47;5033838;28;20480;-65
2022/03/27 06:36:36;;;;;;;7.40;7.10;;;;;;;15.61;20.45;101538.47;5031318;28;20017;-65
2022/03/27 06:39:03;;;;;;;7.30;7.00;;;;;;;15.59;20.77;101543.16;5031234;28;20053;-65
2022/03/27 06:41:29;;;;;;;6.95;6.65;;;;;;;17.48;18.79;101563.69;5029675;28;20037;-65
2022/03/27 06:43:55;;;;;;;6.95;6.65;;;;;;;15.21;20.80;101553.03;5031523;28;20033;-65
2022/03/27 06:46:20;;;;;;;6.88;6.57;;;;;;;17.32;19.11;101557.59;5048327;28;20545;-68
2022/03/27 06:48:47;;;;;;;6.80;6.50;;;;;;;16.67;19.49;101569.31;5044724;28;20104;-65
2022/03/27 06:51:14;;;;;;;7.00;6.70;;;;;;;17.56;18.85;101556.34;5051311;28;20043;-66
2022/03/27 06:53:40;;;;;;;7.60;7.30;;;;;;;17.30;18.89;101548.91;5050968;28;20535;-65
2022/03/27 06:56:06;;;;;;;7.03;6.72;;;;;;;17.40;20.00;101570.03;5037269;28;20056;-65
2022/03/27 06:58:31;;;;;;;7.05;6.75;;;;;;;16.66;19.22;101570.31;5030303;28;20034;-64
2022/03/27 07:03:41;;;;;;;7.07;6.78;;;;;;;18.17;17.59;101579.88;5041791;28;20036;-65
2022/03/27 07:06:07;;;;;;;7.10;6.80;;;;;;;18.05;18.23;101574.22;5050058;28;20029;-67
2022/03/27 07:08:33;;;;;;;7.22;6.93;;;;;;;17.97;18.16;101586.97;5044448;28;20424;-65
2022/03/27 07:11:00;;;;;;;7.30;7.00;;;;;;;18.32;17.21;101572.50;5045333;28;20083;-65
2022/03/27 07:13:27;;;;;;;7.07;6.78;;;;;;;18.01;18.38;101591.75;5051066;28;20387;-65
2022/03/27 07:15:55;;;;;;;7.10;6.80;;;;;;;18.47;17.72;101583.09;5040422;28;20029;-65
2022/03/27 07:18:21;;;;;;;6.90;6.60;;;;;;;18.71;17.80;101595.19;5057120;28;20072;-65
2022/03/27 07:20:47;;;;;;;6.93;6.63;;;;;;;19.49;17.42;101598.22;5036550;28;20025;-66
2022/03/27 07:23:17;;;;;;;7.07;6.78;;;;;;;18.65;17.24;101604.03;5037660;28;20452;-64
2022/03/27 07:25:45;;;;;;;7.18;6.88;;;;;;;17.77;18.16;101608.31;5035897;28;20454;-63
2022/03/27 07:28:12;;;;;;;7.10;6.80;;;;;;;20.41;16.48;101613.38;5034648;28;20037;-64
2022/03/27 07:30:41;;;;;;;7.22;6.93;;;;;;;20.20;15.99;101621.75;5034238;28;20516;-63
2022/03/27 07:33:07;;;;;;;7.13;6.82;;;;;;;20.37;16.66;101621.09;5046718;28;20078;-64
2022/03/27 07:35:32;;;;;;;7.03;6.72;;;;;;;18.91;17.19;101620.28;5038031;28;20045;-64
2022/03/27 07:37:59;;;;;;;7.28;6.97;;;;;;;17.93;17.86;101624.97;5040012;28;20080;-63
2022/03/27 07:40:24;;;;;;;7.45;7.15;;;;;;;18.88;16.97;101628.75;5045220;28;20052;-63
2022/03/27 07:42:51;;;;;;;7.13;6.82;;;;;;;17.68;17.37;101632.59;5047588;28;20361;-65
2022/03/27 07:45:19;;;;;;;7.40;7.10;;;;;;;16.90;18.15;101628.16;5040000;28;20121;-63
2022/03/27 07:47:45;;;;;;;7.22;6.93;;;;;;;16.79;18.31;101631.31;5032109;28;20030;-63
2022/03/27 07:50:12;;;;;;;7.50;7.20;;;;;;;16.41;18.44;101610.00;5034639;28;20558;-63
2022/03/27 07:52:38;;;;;;;7.30;7.00;;;;;;;18.17;17.45;101647.00;5035648;28;20480;-64
2022/03/27 07:55:05;;;;;;;7.70;7.40;;;;;;;16.99;17.62;101645.75;5034672;28;20132;-64
2022/03/27 07:57:31;;;;;;;7.38;7.07;;;;;;;16.15;17.66;101633.72;5048399;28;20049;-64
2022/03/27 07:59:57;;;;;;;7.57;7.28;;;;;;;17.56;17.08;101633.31;5054429;28;20040;-63
2022/03/27 08:02:22;;;;;;;7.45;7.15;;;;;;;16.93;17.07;101646.50;5054307;28;20021;-65
2022/03/27 08:04:48;;;;;;;7.28;6.97;;;;;;;15.07;17.69;101632.16;5040108;28;20152;-63
2022/03/27 08:07:14;;;;;;;7.60;7.30;;;;;;;15.61;17.73;101637.44;5034669;28;20586;-63
2022/03/27 08:09:41;;;;;;;7.25;6.95;;;;;;;16.83;17.23;101651.34;5046092;28;20029;-63
2022/03/27 08:12:08;;;;;;;7.03;6.72;;;;;;;15.42;18.77;101648.59;5060745;28;20184;-63
2022/03/27 08:14:38;;;;;;;7.00;6.70;;;;;;;16.95;17.58;101627.56;5058295;28;20100;-66
2022/03/27 08:17:05;;;;;;;7.10;6.80;;;;;;;15.52;18.24;101638.50;5052529;28;20108;-65
2022/03/27 08:19:32;;;;;;;7.22;6.93;;;;;;;15.13;17.93;101638.59;5028334;28;20053;-63
2022/03/27 08:21:58;;;;;;;7.22;6.93;;;;;;;14.59;18.72;101633.25;5026953;28;20047;-64
2022/03/27 08:24:23;;;;;;;7.30;7.00;;;;;;;16.17;17.91;101658.50;5032930;28;20028;-64
2022/03/27 08:26:56;;;;;;;6.95;6.65;;;;;;;15.53;18.25;101642.00;5033116;28;20052;-65
2022/03/27 08:29:30;;;;;;;8.13;7.72;;;;;;;16.01;17.78;101660.31;5047566;28;20025;-65
2022/03/27 08:31:59;;;;;;;7.22;6.93;;;;;;;15.25;18.59;101647.88;5036387;28;20031;-64
2022/03/27 08:34:25;;;;;;;7.20;6.90;;;;;;;15.51;18.04;101644.88;5033100;28;20448;-62
2022/03/27 08:36:51;;;;;;;7.15;6.85;;;;;;;14.51;19.15;101650.13;5033082;28;20109;-65
2022/03/27 08:39:18;;;;;;;7.40;7.10;;;;;;;13.24;19.71;101639.28;5040805;28;20096;-65
2022/03/27 08:41:45;;;;;;;7.47;7.18;;;;;;;12.32;20.01;101632.97;5021959;28;20041;-64
2022/03/27 08:44:16;;;;;;;8.07;7.68;;;;;;;14.05;18.80;101670.41;5032513;28;20051;-65
2022/03/27 08:46:42;;;;;;;6.97;6.68;;;;;;;13.81;19.58;101655.28;5036153;28;20029;-63
2022/03/27 08:49:14;;;;;;;7.05;6.75;;;;;;;14.10;18.81;101670.72;5032577;28;20030;-64
2022/03/27 08:51:51;;;;;;;6.93;6.63;;;;;;;14.26;18.97;101669.88;5029236;28;20489;-66
2022/03/27 08:54:22;;;;;;;6.60;6.30;;;;;;;12.78;19.93;101665.47;5025746;28;20029;-64
2022/03/27 08:57:01;;;;;;;7.50;7.10;;;;;;;11.98;21.09;101654.25;5032323;28;20115;-65
2022/03/27 08:59:27;;;;;;;7.95;7.55;;;;;;;11.79;21.29;101649.06;5030313;28;20489;-63
2022/03/27 09:01:53;;;;;;;7.53;7.18;;;;;;;11.92;20.90;101659.34;5032949;28;20026;-65
2022/03/27 09:04:19;;;;;;;7.22;6.93;;;;;;;12.58;20.85;101666.69;5043729;28;20021;-65
2022/03/27 09:06:45;;;;;;;7.00;6.70;;;;;;;12.04;20.55;101648.28;5036530;28;20025;-64
2022/03/27 09:09:10;;;;;;;6.93;6.63;;;;;;;11.55;21.22;101628.47;5039993;28;20029;-65
2022/03/27 09:11:36;;;;;;;6.70;6.40;;;;;;;12.33;20.24;101653.25;5041587;28;20409;-66
2022/03/27 09:14:03;;;;;;;6.80;6.50;;;;;;;11.61;20.92;101643.81;5031882;28;20052;-64
2022/03/27 09:16:29;;;;;;;7.05;6.75;;;;;;;12.71;20.95;101649.28;5030581;28;20029;-63
2022/03/27 09:19:01;;;;;;;6.70;6.40;;;;;;;12.55;21.23;101613.75;5035715;28;20100;-64
2022/03/27 09:21:27;;;;;;;7.97;7.57;;;;;;;12.22;21.02;101631.44;5036100;28;20025;-64
2022/03/27 09:23:59;;;;;;;6.78;6.47;;;;;;;13.35;19.99;101640.78;5032884;28;20029;-64
2022/03/27 09:26:25;;;;;;;7.10;6.80;;;;;;;13.30;20.12;101645.78;5033436;28;20476;-63
2022/03/27 09:28:53;;;;;;;6.78;6.47;;;;;;;12.81;19.44;101619.84;5028066;28;20485;-62
2022/03/27 09:31:19;;;;;;;6.70;6.40;;;;;;;12.63;19.24;101637.75;5034722;28;20084;-65
2022/03/27 09:33:46;;;;;;;7.07;6.78;;;;;;;12.29;19.21;101629.81;5032761;28;20025;-64
2022/03/27 09:36:28;;;;;;;7.32;7.03;;;;;;;12.68;19.28;101648.75;5040319;28;20111;-64
2022/03/27 09:38:56;;;;;;;7.07;6.78;;;;;;;12.91;20.10;101646.31;5038849;28;20025;-64
2022/03/27 09:41:43;;;;;;;7.70;7.30;;;;;;;12.41;20.40;101620.53;5034295;28;20029;-65
2022/03/27 09:44:32;;;;;;;7.35;7.05;;;;;;;12.75;20.63;101639.13;5043179;28;20016;-64
2022/03/27 09:47:02;;;;;;;6.90;6.60;;;;;;;12.17;21.32;101630.06;5031089;28;20030;-64
2022/03/27 09:49:30;;;;;;;7.82;7.22;;;;;;;11.78;21.54;101631.47;5033990;28;20069;-63
2022/03/27 09:51:58;;;;;;;6.78;6.47;;;;;;;11.84;21.31;101628.22;5041181;28;20028;-66
2022/03/27 09:54:25;;;;;;;7.90;7.50;;;;;;;11.85;21.44;101621.91;5031299;28;20021;-64
2022/03/27 09:56:51;;;;;;;8.02;7.63;;;;;;;11.46;22.04;101597.50;5030156;28;20037;-65
2022/03/27 09:59:32;;;;;;;7.20;6.90;;;;;;;11.14;21.80;101630.75;5030333;28;20079;-65
2022/03/27 10:02:17;;;;;;;8.68;8.23;;;;;;;11.96;21.51;101632.25;5026841;28;20440;-65
2022/03/27 10:05:01;;;;;;;;;;;;;;;11.93;21.59;101631.75;5042560;28;20021;-63
2022/03/27 10:07:32;;;;;;;7.65;7.25;;;;;;;11.74;21.74;101627.44;5031493;28;19920;-64
2022/03/27 10:09:57;;;;;;;7.18;6.88;;;;;;;11.07;21.64;101627.88;5034704;28;20029;-65
2022/03/27 10:12:28;;;;;;;7.07;6.78;;;;;;;10.64;21.68;101628.56;5033087;28;20078;-64
2022/03/27 10:15:03;;;;;;;6.70;6.40;;;;;;;11.53;21.23;101652.53;5024221;28;20025;-64
2022/03/27 10:17:32;;;;;;;8.25;7.85;;;;;;;11.18;21.00;101645.41;5029712;28;20056;-64
2022/03/27 10:20:26;;;;;;;8.23;7.82;;;;;;;10.76;21.40;101650.44;5027652;28;20100;-64
2022/03/27 10:23:02;;;;;;;7.13;6.83;;;;;;;10.37;21.16;101632.06;5029903;28;20151;-64
2022/03/27 10:25:48;;;;;;;6.80;6.50;;;;;;;10.61;20.63;101641.28;5029260;28;20385;-64
2022/03/27 10:28:14;;;;;;;6.70;6.40;;;;;;;10.72;20.38;101641.06;5047111;28;20060;-64
2022/03/27 10:30:41;;;;;;;7.00;6.70;;;;;;;10.71;19.65;101626.16;5056576;28;20033;-65
2022/03/27 10:33:08;;;;;;;7.03;6.72;;;;;;;10.86;20.13;101642.41;5030531;28;20064;-65
2022/03/27 10:35:52;;;;;;;7.78;7.38;;;;;;;10.68;21.41;101645.88;5031787;28;20069;-64
2022/03/27 10:38:37;;;;;;;7.93;7.53;;;;;;;10.35;21.62;101617.25;5029259;28;20029;-66
2022/03/27 10:41:33;;;;;;;7.32;7.03;;;;;;;10.34;21.25;101627.03;5028254;28;20096;-65
2022/03/27 10:44:08;;;;;;;7.15;6.85;;;;;;;10.40;20.87;101617.66;5030855;28;20558;-65
2022/03/27 10:46:34;;;;;;;8.15;7.75;;;;;;;10.65;20.96;101640.88;5033559;28;20033;-66
2022/03/27 10:49:17;;;;;;;6.90;6.60;;;;;;;10.96;20.40;101652.00;5041549;28;20107;-65
2022/03/27 10:51:45;;;;;;;7.55;7.15;;;;;;;10.22;21.11;101644.09;5037192;28;20029;-65
2022/03/27 10:54:19;;;;;;;7.00;6.70;;;;;;;10.52;21.56;101629.75;5052101;28;20021;-65
2022/03/27 10:56:46;;;;;;;7.82;7.43;;;;;;;10.41;21.43;101638.72;5035700;28;20053;-65
2022/03/27 10:59:26;;;;;;;7.38;7.05;;;;;;;10.41;21.29;101636.06;5026280;28;20047;-64
2022/03/27 11:01:56;;;;;;;10.45;9.85;;;;;;;10.20;21.22;101615.03;5033059;28;20113;-64
2022/03/27 11:04:35;;;;;;;7.20;6.90;;;;;;;10.49;20.45;101622.91;5042922;28;20104;-64
2022/03/27 11:07:16;;;;;;;6.72;6.43;;;;;;;10.45;20.67;101629.50;5033122;28;20032;-65
2022/03/27 11:09:45;;;;;;;7.60;7.20;;;;;;;10.32;21.22;101623.69;5034317;28;20040;-64
2022/03/27 11:12:24;;;;;;;6.82;6.53;;;;;;;10.66;21.92;101623.13;5038459;28;20116;-66
2022/03/27 11:14:52;;;;;;;7.07;6.78;;;;;;;10.66;21.41;101625.78;5036220;28;20067;-65
2022/03/27 11:17:49;;;;;;;8.27;7.88;;;;;;;10.63;21.33;101629.53;5030909;28;20508;-65
2022/03/27 11:20:21;;;;;;;7.05;6.75;;;;;;;10.56;21.40;101619.66;5032488;28;20086;-65
2022/03/27 11:22:52;;;;;;;7.22;6.93;;;;;;;10.74;20.57;101623.22;5034391;28;20033;-65
2022/03/27 11:25:24;;;;;;;7.47;7.07;;;;;;;10.82;20.64;101618.00;5032185;28;20033;-65
2022/03/27 11:27:55;;;;;;;7.70;7.30;;;;;;;10.89;21.42;101626.19;5049548;28;20031;-64
2022/03/27 11:30:20;;;;;;;8.13;7.72;;;;;;;11.00;21.01;101623.31;5036531;28;20112;-65
2022/03/27 11:33:14;;;;;;;7.15;6.85;;;;;;;10.87;20.62;101625.47;5037052;28;20433;-66
2022/03/27 11:36:09;;;;;;;7.93;7.53;;;;;;;10.67;20.76;101622.97;5041124;28;20031;-66